sensor_id;sensor_type;location;lat;lon;timestamp;temperature;humidity
12602;DHT22;30282;16.436;99.370;2024-01-27T00:00:07;20.70;99.90
12602;DHT22;30282;16.436;99.370;2024-01-27T00:02:38;20.60;99.90
12602;DHT22;30282;16.436;99.370;2024-01-27T00:05:08;20.60;99.90
12602;DHT22;30282;16.436;99.370;2024-01-27T00:07:37;20.60;99.90
12602;DHT22;30282;16.436;99.370;2024-01-27T00:10:08;20.60;99.90
12602;DHT22;30282;16.436;99.370;2024-01-27T00:12:37;20.60;99.90
12602;DHT22;30282;16.436;99.370;2024-01-27T00:15:08;20.60;99.90
12602;DHT22;30282;16.436;99.370;2024-01-27T00:17:39;20.70;99.90
12602;DHT22;30282;16.436;99.370;2024-01-27T00:20:09;20.80;99.90
12602;DHT22;30282;16.436;99.370;2024-01-27T00:22:38;20.80;99.90
12602;DHT22;30282;16.436;99.370;2024-01-27T00:25:07;20.80;99.90
12602;DHT22;30282;16.436;99.370;2024-01-27T00:27:37;20.80;99.90
12602;DHT22;30282;16.436;99.370;2024-01-27T00:30:07;20.90;99.90
12602;DHT22;30282;16.436;99.370;2024-01-27T00:32:43;20.90;99.90
12602;DHT22;30282;16.436;99.370;2024-01-27T00:35:13;20.90;99.90
12602;DHT22;30282;16.436;99.370;2024-01-27T00:37:42;20.90;99.90
12602;DHT22;30282;16.436;99.370;2024-01-27T00:40:12;20.90;99.90
12602;DHT22;30282;16.436;99.370;2024-01-27T00:42:41;20.80;99.90
12602;DHT22;30282;16.436;99.370;2024-01-27T00:45:11;20.80;99.90
12602;DHT22;30282;16.436;99.370;2024-01-27T00:47:41;20.70;99.90
12602;DHT22;30282;16.436;99.370;2024-01-27T00:50:10;20.70;99.90
12602;DHT22;30282;16.436;99.370;2024-01-27T00:52:39;20.80;99.90
12602;DHT22;30282;16.436;99.370;2024-01-27T00:55:09;20.80;99.90
12602;DHT22;30282;16.436;99.370;2024-01-27T00:57:38;20.80;99.90
12602;DHT22;30282;16.436;99.370;2024-01-27T01:00:08;20.90;99.90
12602;DHT22;30282;16.436;99.370;2024-01-27T01:02:38;21.00;99.90
12602;DHT22;30282;16.436;99.370;2024-01-27T01:05:09;21.10;99.90
12602;DHT22;30282;16.436;99.370;2024-01-27T01:07:38;21.10;99.90
12602;DHT22;30282;16.436;99.370;2024-01-27T01:10:08;21.30;99.90
12602;DHT22;30282;16.436;99.370;2024-01-27T01:12:37;21.30;99.90
12602;DHT22;30282;16.436;99.370;2024-01-27T01:15:07;21.30;99.90
12602;DHT22;30282;16.436;99.370;2024-01-27T01:17:36;21.40;99.90
12602;DHT22;30282;16.436;99.370;2024-01-27T01:20:08;21.40;99.90
12602;DHT22;30282;16.436;99.370;2024-01-27T01:22:37;21.40;99.90
12602;DHT22;30282;16.436;99.370;2024-01-27T01:25:07;21.50;99.90
12602;DHT22;30282;16.436;99.370;2024-01-27T01:27:36;21.50;99.90
12602;DHT22;30282;16.436;99.370;2024-01-27T01:30:06;21.60;99.90
12602;DHT22;30282;16.436;99.370;2024-01-27T01:32:36;21.60;99.90
12602;DHT22;30282;16.436;99.370;2024-01-27T01:35:06;21.70;99.90
12602;DHT22;30282;16.436;99.370;2024-01-27T01:37:36;21.70;99.90
12602;DHT22;30282;16.436;99.370;2024-01-27T01:40:07;21.70;99.90
12602;DHT22;30282;16.436;99.370;2024-01-27T01:42:36;21.80;99.90
12602;DHT22;30282;16.436;99.370;2024-01-27T01:45:06;21.80;99.90
12602;DHT22;30282;16.436;99.370;2024-01-27T01:47:35;21.90;99.90
12602;DHT22;30282;16.436;99.370;2024-01-27T01:50:06;21.90;99.90
12602;DHT22;30282;16.436;99.370;2024-01-27T01:52:38;22.00;99.90
12602;DHT22;30282;16.436;99.370;2024-01-27T01:55:07;22.10;99.90
12602;DHT22;30282;16.436;99.370;2024-01-27T01:57:36;22.20;99.90
12602;DHT22;30282;16.436;99.370;2024-01-27T02:00:07;22.30;99.90
12602;DHT22;30282;16.436;99.370;2024-01-27T02:02:36;22.40;99.90
12602;DHT22;30282;16.436;99.370;2024-01-27T02:05:06;22.50;99.90
12602;DHT22;30282;16.436;99.370;2024-01-27T02:07:38;22.60;99.90
12602;DHT22;30282;16.436;99.370;2024-01-27T02:10:13;22.60;99.90
12602;DHT22;30282;16.436;99.370;2024-01-27T02:12:43;22.90;99.90
12602;DHT22;30282;16.436;99.370;2024-01-27T02:15:13;23.10;99.90
12602;DHT22;30282;16.436;99.370;2024-01-27T02:17:42;23.30;99.90
12602;DHT22;30282;16.436;99.370;2024-01-27T02:20:11;23.50;99.90
12602;DHT22;30282;16.436;99.370;2024-01-27T02:22:42;23.60;99.90
12602;DHT22;30282;16.436;99.370;2024-01-27T02:25:13;23.80;99.90
12602;DHT22;30282;16.436;99.370;2024-01-27T02:27:42;23.90;99.90
12602;DHT22;30282;16.436;99.370;2024-01-27T02:30:11;24.10;99.90
12602;DHT22;30282;16.436;99.370;2024-01-27T02:32:41;24.30;99.90
12602;DHT22;30282;16.436;99.370;2024-01-27T02:35:10;24.50;99.90
12602;DHT22;30282;16.436;99.370;2024-01-27T02:37:39;24.70;99.90
12602;DHT22;30282;16.436;99.370;2024-01-27T02:40:09;24.80;99.90
12602;DHT22;30282;16.436;99.370;2024-01-27T02:42:40;24.70;99.90
12602;DHT22;30282;16.436;99.370;2024-01-27T02:45:11;24.70;99.90
12602;DHT22;30282;16.436;99.370;2024-01-27T02:47:41;24.50;99.90
12602;DHT22;30282;16.436;99.370;2024-01-27T02:50:10;24.40;99.90
12602;DHT22;30282;16.436;99.370;2024-01-27T02:52:41;24.40;99.90
12602;DHT22;30282;16.436;99.370;2024-01-27T02:55:10;24.30;99.90
12602;DHT22;30282;16.436;99.370;2024-01-27T02:57:41;24.40;99.90
12602;DHT22;30282;16.436;99.370;2024-01-27T03:00:10;24.40;99.90
12602;DHT22;30282;16.436;99.370;2024-01-27T03:02:40;24.40;99.90
12602;DHT22;30282;16.436;99.370;2024-01-27T03:05:09;24.40;99.90
12602;DHT22;30282;16.436;99.370;2024-01-27T03:07:40;24.40;99.90
12602;DHT22;30282;16.436;99.370;2024-01-27T03:10:09;24.40;99.90
12602;DHT22;30282;16.436;99.370;2024-01-27T03:12:43;24.30;99.90
12602;DHT22;30282;16.436;99.370;2024-01-27T03:15:12;24.20;99.90
12602;DHT22;30282;16.436;99.370;2024-01-27T03:17:41;24.20;99.90
12602;DHT22;30282;16.436;99.370;2024-01-27T03:20:11;24.10;99.90
12602;DHT22;30282;16.436;99.370;2024-01-27T03:22:40;24.20;99.90
12602;DHT22;30282;16.436;99.370;2024-01-27T03:25:09;24.20;99.90
12602;DHT22;30282;16.436;99.370;2024-01-27T03:27:39;24.20;99.90
12602;DHT22;30282;16.436;99.370;2024-01-27T03:30:10;24.20;99.90
12602;DHT22;30282;16.436;99.370;2024-01-27T03:32:39;24.20;99.90
12602;DHT22;30282;16.436;99.370;2024-01-27T03:35:09;24.20;99.90
12602;DHT22;30282;16.436;99.370;2024-01-27T03:37:38;24.30;99.90
12602;DHT22;30282;16.436;99.370;2024-01-27T03:40:08;24.30;99.90
12602;DHT22;30282;16.436;99.370;2024-01-27T03:42:37;24.30;99.90
12602;DHT22;30282;16.436;99.370;2024-01-27T03:45:08;24.30;99.90
12602;DHT22;30282;16.436;99.370;2024-01-27T03:47:37;24.30;99.90
12602;DHT22;30282;16.436;99.370;2024-01-27T03:50:07;24.30;99.90
12602;DHT22;30282;16.436;99.370;2024-01-27T03:52:37;24.40;99.90
12602;DHT22;30282;16.436;99.370;2024-01-27T03:55:06;24.40;99.90
12602;DHT22;30282;16.436;99.370;2024-01-27T03:57:36;24.40;99.90
12602;DHT22;30282;16.436;99.370;2024-01-27T04:00:06;24.40;99.90
12602;DHT22;30282;16.436;99.370;2024-01-27T04:02:37;24.50;99.90
12602;DHT22;30282;16.436;99.370;2024-01-27T04:05:07;24.60;99.90
12602;DHT22;30282;16.436;99.370;2024-01-27T04:07:36;24.70;99.90
12602;DHT22;30282;16.436;99.370;2024-01-27T04:10:05;24.70;99.90
12602;DHT22;30282;16.436;99.370;2024-01-27T04:12:34;24.70;99.90
12602;DHT22;30282;16.436;99.370;2024-01-27T04:15:04;24.90;99.90
12602;DHT22;30282;16.436;99.370;2024-01-27T04:17:33;24.90;99.90
12602;DHT22;30282;16.436;99.370;2024-01-27T04:20:04;25.10;99.90
12602;DHT22;30282;16.436;99.370;2024-01-27T04:22:33;25.30;99.90
12602;DHT22;30282;16.436;99.370;2024-01-27T04:25:03;25.60;99.90
12602;DHT22;30282;16.436;99.370;2024-01-27T04:27:36;25.80;99.90
12602;DHT22;30282;16.436;99.370;2024-01-27T04:30:06;25.80;99.90
12602;DHT22;30282;16.436;99.370;2024-01-27T04:32:36;25.80;99.90
12602;DHT22;30282;16.436;99.370;2024-01-27T04:35:09;26.00;99.90
12602;DHT22;30282;16.436;99.370;2024-01-27T04:37:38;25.90;99.90
12602;DHT22;30282;16.436;99.370;2024-01-27T04:40:08;26.00;99.90
12602;DHT22;30282;16.436;99.370;2024-01-27T04:42:38;26.20;99.90
12602;DHT22;30282;16.436;99.370;2024-01-27T04:45:08;26.40;99.90
12602;DHT22;30282;16.436;99.370;2024-01-27T04:47:37;26.60;99.90
12602;DHT22;30282;16.436;99.370;2024-01-27T04:50:08;26.60;99.90
12602;DHT22;30282;16.436;99.370;2024-01-27T04:52:37;27.00;99.90
12602;DHT22;30282;16.436;99.370;2024-01-27T04:55:08;27.40;99.90
12602;DHT22;30282;16.436;99.370;2024-01-27T04:57:37;27.60;99.90
12602;DHT22;30282;16.436;99.370;2024-01-27T05:00:07;27.90;99.90
12602;DHT22;30282;16.436;99.370;2024-01-27T05:02:40;27.90;99.90
12602;DHT22;30282;16.436;99.370;2024-01-27T05:05:11;28.20;99.90
12602;DHT22;30282;16.436;99.370;2024-01-27T05:07:40;28.40;99.90
12602;DHT22;30282;16.436;99.370;2024-01-27T05:10:11;28.50;99.90
12602;DHT22;30282;16.436;99.370;2024-01-27T05:12:40;28.70;99.90
12602;DHT22;30282;16.436;99.370;2024-01-27T05:15:10;28.90;99.90
12602;DHT22;30282;16.436;99.370;2024-01-27T05:17:39;29.00;99.90
12602;DHT22;30282;16.436;99.370;2024-01-27T05:20:10;29.10;99.90
12602;DHT22;30282;16.436;99.370;2024-01-27T05:22:40;29.00;99.90
12602;DHT22;30282;16.436;99.370;2024-01-27T05:25:09;28.90;99.90
12602;DHT22;30282;16.436;99.370;2024-01-27T05:27:38;28.70;99.90
12602;DHT22;30282;16.436;99.370;2024-01-27T05:30:08;28.30;99.90
12602;DHT22;30282;16.436;99.370;2024-01-27T05:32:38;28.10;99.90
12602;DHT22;30282;16.436;99.370;2024-01-27T05:35:07;27.90;99.90
12602;DHT22;30282;16.436;99.370;2024-01-27T05:37:39;27.80;99.90
12602;DHT22;30282;16.436;99.370;2024-01-27T05:40:09;27.70;99.90
12602;DHT22;30282;16.436;99.370;2024-01-27T05:42:38;27.60;99.90
12602;DHT22;30282;16.436;99.370;2024-01-27T05:45:10;27.60;99.90
12602;DHT22;30282;16.436;99.370;2024-01-27T05:47:39;27.60;99.90
12602;DHT22;30282;16.436;99.370;2024-01-27T05:50:11;27.70;99.90
12602;DHT22;30282;16.436;99.370;2024-01-27T05:52:42;28.00;99.90
12602;DHT22;30282;16.436;99.370;2024-01-27T05:55:11;28.40;99.90
12602;DHT22;30282;16.436;99.370;2024-01-27T05:57:41;28.60;99.90
12602;DHT22;30282;16.436;99.370;2024-01-27T06:00:11;28.80;99.90
12602;DHT22;30282;16.436;99.370;2024-01-27T06:02:40;29.00;99.90
12602;DHT22;30282;16.436;99.370;2024-01-27T06:05:09;29.20;99.90
12602;DHT22;30282;16.436;99.370;2024-01-27T06:07:39;29.40;99.90
12602;DHT22;30282;16.436;99.370;2024-01-27T06:10:11;29.50;99.90
12602;DHT22;30282;16.436;99.370;2024-01-27T06:12:40;29.60;99.90
12602;DHT22;30282;16.436;99.370;2024-01-27T06:15:10;29.60;99.90
12602;DHT22;30282;16.436;99.370;2024-01-27T06:17:39;29.70;99.90
12602;DHT22;30282;16.436;99.370;2024-01-27T06:20:09;29.70;99.90
12602;DHT22;30282;16.436;99.370;2024-01-27T06:22:38;29.80;99.90
12602;DHT22;30282;16.436;99.370;2024-01-27T06:25:10;30.00;99.90
12602;DHT22;30282;16.436;99.370;2024-01-27T06:27:39;30.20;99.90
12602;DHT22;30282;16.436;99.370;2024-01-27T06:30:11;30.20;99.90
12602;DHT22;30282;16.436;99.370;2024-01-27T06:32:41;30.30;99.90
12602;DHT22;30282;16.436;99.370;2024-01-27T06:35:10;30.30;99.90
12602;DHT22;30282;16.436;99.370;2024-01-27T06:37:39;30.30;99.90
12602;DHT22;30282;16.436;99.370;2024-01-27T06:40:11;30.40;99.90
12602;DHT22;30282;16.436;99.370;2024-01-27T06:42:40;30.40;99.90
12602;DHT22;30282;16.436;99.370;2024-01-27T06:45:09;30.50;99.90
12602;DHT22;30282;16.436;99.370;2024-01-27T06:47:38;30.50;99.90
12602;DHT22;30282;16.436;99.370;2024-01-27T06:50:08;30.40;99.90
12602;DHT22;30282;16.436;99.370;2024-01-27T06:52:38;30.40;99.90
12602;DHT22;30282;16.436;99.370;2024-01-27T06:55:07;30.30;99.90
12602;DHT22;30282;16.436;99.370;2024-01-27T06:57:39;30.30;99.90
12602;DHT22;30282;16.436;99.370;2024-01-27T07:00:09;30.20;99.90
12602;DHT22;30282;16.436;99.370;2024-01-27T07:02:41;30.20;99.90
12602;DHT22;30282;16.436;99.370;2024-01-27T07:05:10;30.20;99.90
12602;DHT22;30282;16.436;99.370;2024-01-27T07:07:41;30.20;99.90
12602;DHT22;30282;16.436;99.370;2024-01-27T07:10:10;30.10;99.90
12602;DHT22;30282;16.436;99.370;2024-01-27T07:12:41;30.20;99.90
12602;DHT22;30282;16.436;99.370;2024-01-27T07:15:10;30.30;99.90
12602;DHT22;30282;16.436;99.370;2024-01-27T07:17:39;30.20;99.90
12602;DHT22;30282;16.436;99.370;2024-01-27T07:20:09;30.10;99.90
12602;DHT22;30282;16.436;99.370;2024-01-27T07:22:38;29.90;99.90
12602;DHT22;30282;16.436;99.370;2024-01-27T07:25:08;30.00;99.90
12602;DHT22;30282;16.436;99.370;2024-01-27T07:27:39;29.90;99.90
12602;DHT22;30282;16.436;99.370;2024-01-27T07:30:09;30.00;99.90
12602;DHT22;30282;16.436;99.370;2024-01-27T07:32:38;30.20;99.90
12602;DHT22;30282;16.436;99.370;2024-01-27T07:35:09;30.30;99.90
12602;DHT22;30282;16.436;99.370;2024-01-27T07:37:40;30.30;99.90
12602;DHT22;30282;16.436;99.370;2024-01-27T07:40:11;30.30;99.90
12602;DHT22;30282;16.436;99.370;2024-01-27T07:42:41;30.20;99.90
12602;DHT22;30282;16.436;99.370;2024-01-27T07:45:10;30.20;99.90
12602;DHT22;30282;16.436;99.370;2024-01-27T07:47:40;30.10;99.90
12602;DHT22;30282;16.436;99.370;2024-01-27T07:50:09;30.10;99.90
12602;DHT22;30282;16.436;99.370;2024-01-27T07:52:38;30.00;99.90
12602;DHT22;30282;16.436;99.370;2024-01-27T07:55:08;30.00;99.90
12602;DHT22;30282;16.436;99.370;2024-01-27T07:57:37;30.20;99.90
12602;DHT22;30282;16.436;99.370;2024-01-27T08:00:09;30.20;99.90
12602;DHT22;30282;16.436;99.370;2024-01-27T08:02:39;30.20;99.90
12602;DHT22;30282;16.436;99.370;2024-01-27T08:05:08;30.20;99.90
12602;DHT22;30282;16.436;99.370;2024-01-27T08:07:37;30.10;99.90
12602;DHT22;30282;16.436;99.370;2024-01-27T08:10:07;30.10;99.90
12602;DHT22;30282;16.436;99.370;2024-01-27T08:12:38;30.20;99.90
12602;DHT22;30282;16.436;99.370;2024-01-27T08:15:11;30.20;99.90
12602;DHT22;30282;16.436;99.370;2024-01-27T08:17:40;30.30;99.90
12602;DHT22;30282;16.436;99.370;2024-01-27T08:20:10;30.40;99.90
12602;DHT22;30282;16.436;99.370;2024-01-27T08:22:39;30.40;99.90
12602;DHT22;30282;16.436;99.370;2024-01-27T08:25:13;30.30;99.90
12602;DHT22;30282;16.436;99.370;2024-01-27T08:27:43;30.20;99.90
12602;DHT22;30282;16.436;99.370;2024-01-27T08:30:17;29.90;99.90
12602;DHT22;30282;16.436;99.370;2024-01-27T08:32:46;29.90;99.90
12602;DHT22;30282;16.436;99.370;2024-01-27T08:35:15;30.00;99.90
12602;DHT22;30282;16.436;99.370;2024-01-27T08:37:45;30.10;99.90
12602;DHT22;30282;16.436;99.370;2024-01-27T08:40:14;30.10;99.90
12602;DHT22;30282;16.436;99.370;2024-01-27T08:42:44;30.00;99.90
12602;DHT22;30282;16.436;99.370;2024-01-27T08:45:13;30.00;99.90
12602;DHT22;30282;16.436;99.370;2024-01-27T08:47:44;29.90;99.90
12602;DHT22;30282;16.436;99.370;2024-01-27T08:50:13;29.90;99.90
12602;DHT22;30282;16.436;99.370;2024-01-27T08:52:42;29.80;99.90
12602;DHT22;30282;16.436;99.370;2024-01-27T08:55:11;29.70;99.90
12602;DHT22;30282;16.436;99.370;2024-01-27T08:57:40;29.60;99.90
12602;DHT22;30282;16.436;99.370;2024-01-27T09:00:10;29.60;99.90
12602;DHT22;30282;16.436;99.370;2024-01-27T09:02:40;29.70;99.90
12602;DHT22;30282;16.436;99.370;2024-01-27T09:05:11;29.60;99.90
12602;DHT22;30282;16.436;99.370;2024-01-27T09:07:40;29.50;99.90
12602;DHT22;30282;16.436;99.370;2024-01-27T09:10:09;29.50;99.90
12602;DHT22;30282;16.436;99.370;2024-01-27T09:12:39;29.40;99.90
12602;DHT22;30282;16.436;99.370;2024-01-27T09:15:08;29.40;99.90
12602;DHT22;30282;16.436;99.370;2024-01-27T09:17:38;29.30;99.90
12602;DHT22;30282;16.436;99.370;2024-01-27T09:20:08;29.20;99.90
12602;DHT22;30282;16.436;99.370;2024-01-27T09:22:39;29.20;99.90
12602;DHT22;30282;16.436;99.370;2024-01-27T09:25:08;29.10;99.90
12602;DHT22;30282;16.436;99.370;2024-01-27T09:27:38;29.20;99.90
12602;DHT22;30282;16.436;99.370;2024-01-27T09:30:09;29.20;99.90
12602;DHT22;30282;16.436;99.370;2024-01-27T09:32:38;29.10;99.90
12602;DHT22;30282;16.436;99.370;2024-01-27T09:35:08;29.10;99.90
12602;DHT22;30282;16.436;99.370;2024-01-27T09:37:39;29.00;99.90
12602;DHT22;30282;16.436;99.370;2024-01-27T09:40:10;29.00;99.90
12602;DHT22;30282;16.436;99.370;2024-01-27T09:42:41;28.90;99.90
12602;DHT22;30282;16.436;99.370;2024-01-27T09:45:14;28.90;99.90
12602;DHT22;30282;16.436;99.370;2024-01-27T09:47:43;28.90;99.90
12602;DHT22;30282;16.436;99.370;2024-01-27T09:50:14;28.90;99.90
12602;DHT22;30282;16.436;99.370;2024-01-27T09:52:47;28.90;99.90
12602;DHT22;30282;16.436;99.370;2024-01-27T09:55:16;28.90;99.90
12602;DHT22;30282;16.436;99.370;2024-01-27T09:57:46;28.80;99.90
12602;DHT22;30282;16.436;99.370;2024-01-27T10:00:15;28.80;99.90
12602;DHT22;30282;16.436;99.370;2024-01-27T10:02:46;28.70;99.90
12602;DHT22;30282;16.436;99.370;2024-01-27T10:05:16;28.70;99.90
12602;DHT22;30282;16.436;99.370;2024-01-27T10:07:48;28.60;99.90
12602;DHT22;30282;16.436;99.370;2024-01-27T10:10:17;28.60;99.90
12602;DHT22;30282;16.436;99.370;2024-01-27T10:12:48;28.50;99.90
12602;DHT22;30282;16.436;99.370;2024-01-27T10:15:20;28.50;99.90
12602;DHT22;30282;16.436;99.370;2024-01-27T10:17:49;28.40;99.90
12602;DHT22;30282;16.436;99.370;2024-01-27T10:20:18;28.30;99.90
12602;DHT22;30282;16.436;99.370;2024-01-27T10:22:50;28.20;99.90
12602;DHT22;30282;16.436;99.370;2024-01-27T10:25:19;28.20;99.90
12602;DHT22;30282;16.436;99.370;2024-01-27T10:27:49;28.10;99.90
12602;DHT22;30282;16.436;99.370;2024-01-27T10:30:18;28.00;99.90
12602;DHT22;30282;16.436;99.370;2024-01-27T10:32:56;28.00;99.90
12602;DHT22;30282;16.436;99.370;2024-01-27T10:35:25;27.90;99.90
12602;DHT22;30282;16.436;99.370;2024-01-27T10:37:56;27.80;99.90
12602;DHT22;30282;16.436;99.370;2024-01-27T10:40:25;27.90;99.90
12602;DHT22;30282;16.436;99.370;2024-01-27T10:43:01;27.80;99.90
12602;DHT22;30282;16.436;99.370;2024-01-27T10:45:35;27.70;99.90
12602;DHT22;30282;16.436;99.370;2024-01-27T10:48:06;27.70;99.90
12602;DHT22;30282;16.436;99.370;2024-01-27T10:50:37;27.60;99.90
12602;DHT22;30282;16.436;99.370;2024-01-27T10:53:14;27.60;99.90
12602;DHT22;30282;16.436;99.370;2024-01-27T10:55:46;27.60;99.90
12602;DHT22;30282;16.436;99.370;2024-01-27T10:58:15;27.50;99.90
12602;DHT22;30282;16.436;99.370;2024-01-27T11:00:46;27.50;99.90
12602;DHT22;30282;16.436;99.370;2024-01-27T11:03:19;27.60;99.90
12602;DHT22;30282;16.436;99.370;2024-01-27T11:05:49;27.60;99.90
12602;DHT22;30282;16.436;99.370;2024-01-27T11:08:20;27.60;99.90
12602;DHT22;30282;16.436;99.370;2024-01-27T11:10:54;27.60;99.90
12602;DHT22;30282;16.436;99.370;2024-01-27T11:13:24;27.50;99.90
12602;DHT22;30282;16.436;99.370;2024-01-27T11:15:54;27.40;99.90
12602;DHT22;30282;16.436;99.370;2024-01-27T11:18:26;27.40;99.90
12602;DHT22;30282;16.436;99.370;2024-01-27T11:20:58;27.40;99.90
12602;DHT22;30282;16.436;99.370;2024-01-27T11:23:34;27.40;99.90
12602;DHT22;30282;16.436;99.370;2024-01-27T11:26:05;27.40;99.90
12602;DHT22;30282;16.436;99.370;2024-01-27T11:28:34;27.30;99.90
12602;DHT22;30282;16.436;99.370;2024-01-27T11:31:07;27.30;99.90
12602;DHT22;30282;16.436;99.370;2024-01-27T11:33:42;27.30;99.90
12602;DHT22;30282;16.436;99.370;2024-01-27T11:36:19;27.30;99.90
12602;DHT22;30282;16.436;99.370;2024-01-27T11:38:51;27.20;99.90
12602;DHT22;30282;16.436;99.370;2024-01-27T11:41:26;27.20;99.90
12602;DHT22;30282;16.436;99.370;2024-01-27T11:43:56;27.20;99.90
12602;DHT22;30282;16.436;99.370;2024-01-27T11:46:26;27.20;99.90
12602;DHT22;30282;16.436;99.370;2024-01-27T11:48:57;27.30;99.90
12602;DHT22;30282;16.436;99.370;2024-01-27T11:51:26;27.30;99.90
12602;DHT22;30282;16.436;99.370;2024-01-27T11:53:57;27.20;99.90
12602;DHT22;30282;16.436;99.370;2024-01-27T11:56:27;27.20;99.90
12602;DHT22;30282;16.436;99.370;2024-01-27T11:58:56;27.20;99.90
12602;DHT22;30282;16.436;99.370;2024-01-27T12:01:25;27.10;99.90
12602;DHT22;30282;16.436;99.370;2024-01-27T12:03:55;27.10;99.90
12602;DHT22;30282;16.436;99.370;2024-01-27T12:06:24;27.10;99.90
12602;DHT22;30282;16.436;99.370;2024-01-27T12:09:03;27.00;99.90
12602;DHT22;30282;16.436;99.370;2024-01-27T12:11:39;27.10;99.90
12602;DHT22;30282;16.436;99.370;2024-01-27T12:14:08;27.00;99.90
12602;DHT22;30282;16.436;99.370;2024-01-27T12:16:38;27.00;99.90
12602;DHT22;30282;16.436;99.370;2024-01-27T12:19:12;27.00;99.90
12602;DHT22;30282;16.436;99.370;2024-01-27T12:21:48;27.00;99.90
12602;DHT22;30282;16.436;99.370;2024-01-27T12:24:18;27.00;99.90
12602;DHT22;30282;16.436;99.370;2024-01-27T12:26:47;26.90;99.90
12602;DHT22;30282;16.436;99.370;2024-01-27T12:29:17;26.90;99.90
12602;DHT22;30282;16.436;99.370;2024-01-27T12:31:48;26.90;99.90
12602;DHT22;30282;16.436;99.370;2024-01-27T12:34:18;26.80;99.90
12602;DHT22;30282;16.436;99.370;2024-01-27T12:36:47;26.80;99.90
12602;DHT22;30282;16.436;99.370;2024-01-27T12:39:21;26.80;99.90
12602;DHT22;30282;16.436;99.370;2024-01-27T12:41:50;26.70;99.90
12602;DHT22;30282;16.436;99.370;2024-01-27T12:44:19;26.70;99.90
12602;DHT22;30282;16.436;99.370;2024-01-27T12:46:48;26.70;99.90
12602;DHT22;30282;16.436;99.370;2024-01-27T12:49:17;26.70;99.90
12602;DHT22;30282;16.436;99.370;2024-01-27T12:51:47;26.60;99.90
12602;DHT22;30282;16.436;99.370;2024-01-27T12:54:16;26.60;99.90
12602;DHT22;30282;16.436;99.370;2024-01-27T12:56:47;26.60;99.90
12602;DHT22;30282;16.436;99.370;2024-01-27T12:59:17;26.60;99.90
12602;DHT22;30282;16.436;99.370;2024-01-27T13:01:46;26.60;99.90
12602;DHT22;30282;16.436;99.370;2024-01-27T13:04:15;26.60;99.90
12602;DHT22;30282;16.436;99.370;2024-01-27T13:06:44;26.50;99.90
12602;DHT22;30282;16.436;99.370;2024-01-27T13:09:13;26.40;99.90
12602;DHT22;30282;16.436;99.370;2024-01-27T13:11:42;26.40;99.90
12602;DHT22;30282;16.436;99.370;2024-01-27T13:14:14;26.40;99.90
12602;DHT22;30282;16.436;99.370;2024-01-27T13:16:45;26.30;99.90
12602;DHT22;30282;16.436;99.370;2024-01-27T13:19:14;26.30;99.90
12602;DHT22;30282;16.436;99.370;2024-01-27T13:21:43;26.30;99.90
12602;DHT22;30282;16.436;99.370;2024-01-27T13:24:12;26.30;99.90
12602;DHT22;30282;16.436;99.370;2024-01-27T13:26:42;26.30;99.90
12602;DHT22;30282;16.436;99.370;2024-01-27T13:29:13;26.30;99.90
12602;DHT22;30282;16.436;99.370;2024-01-27T13:31:42;26.20;99.90
12602;DHT22;30282;16.436;99.370;2024-01-27T13:34:11;26.20;99.90
12602;DHT22;30282;16.436;99.370;2024-01-27T13:36:41;26.20;99.90
12602;DHT22;30282;16.436;99.370;2024-01-27T13:39:10;26.10;99.90
12602;DHT22;30282;16.436;99.370;2024-01-27T13:41:40;26.10;99.90
12602;DHT22;30282;16.436;99.370;2024-01-27T13:44:09;26.10;99.90
12602;DHT22;30282;16.436;99.370;2024-01-27T13:46:40;26.00;99.90
12602;DHT22;30282;16.436;99.370;2024-01-27T13:49:10;26.00;99.90
12602;DHT22;30282;16.436;99.370;2024-01-27T13:51:39;26.00;99.90
12602;DHT22;30282;16.436;99.370;2024-01-27T13:54:08;25.90;99.90
12602;DHT22;30282;16.436;99.370;2024-01-27T13:56:37;25.90;99.90
12602;DHT22;30282;16.436;99.370;2024-01-27T13:59:06;25.90;99.90
12602;DHT22;30282;16.436;99.370;2024-01-27T14:01:35;25.90;99.90
12602;DHT22;30282;16.436;99.370;2024-01-27T14:04:09;25.80;99.90
12602;DHT22;30282;16.436;99.370;2024-01-27T14:06:38;25.90;99.90
12602;DHT22;30282;16.436;99.370;2024-01-27T14:09:08;25.80;99.90
12602;DHT22;30282;16.436;99.370;2024-01-27T14:11:37;25.80;99.90
12602;DHT22;30282;16.436;99.370;2024-01-27T14:14:06;25.70;99.90
12602;DHT22;30282;16.436;99.370;2024-01-27T14:16:35;25.60;99.90
12602;DHT22;30282;16.436;99.370;2024-01-27T14:19:06;25.70;99.90
12602;DHT22;30282;16.436;99.370;2024-01-27T14:21:36;25.70;99.90
12602;DHT22;30282;16.436;99.370;2024-01-27T14:24:06;25.70;99.90
12602;DHT22;30282;16.436;99.370;2024-01-27T14:26:37;25.70;99.90
12602;DHT22;30282;16.436;99.370;2024-01-27T14:29:07;25.80;99.90
12602;DHT22;30282;16.436;99.370;2024-01-27T14:31:37;25.80;99.90
12602;DHT22;30282;16.436;99.370;2024-01-27T14:34:13;25.80;99.90
12602;DHT22;30282;16.436;99.370;2024-01-27T14:36:43;25.80;99.90
12602;DHT22;30282;16.436;99.370;2024-01-27T14:39:13;25.80;99.90
12602;DHT22;30282;16.436;99.370;2024-01-27T14:41:43;25.80;99.90
12602;DHT22;30282;16.436;99.370;2024-01-27T14:44:12;25.80;99.90
12602;DHT22;30282;16.436;99.370;2024-01-27T14:46:41;25.70;99.90
12602;DHT22;30282;16.436;99.370;2024-01-27T14:49:12;25.70;99.90
12602;DHT22;30282;16.436;99.370;2024-01-27T14:51:41;25.70;99.90
12602;DHT22;30282;16.436;99.370;2024-01-27T14:54:10;25.60;99.90
12602;DHT22;30282;16.436;99.370;2024-01-27T14:56:47;25.60;99.90
12602;DHT22;30282;16.436;99.370;2024-01-27T14:59:16;25.60;99.90
12602;DHT22;30282;16.436;99.370;2024-01-27T15:01:45;25.60;99.90
12602;DHT22;30282;16.436;99.370;2024-01-27T15:04:18;25.60;99.90
12602;DHT22;30282;16.436;99.370;2024-01-27T15:06:47;25.60;99.90
12602;DHT22;30282;16.436;99.370;2024-01-27T15:09:16;25.60;99.90
12602;DHT22;30282;16.436;99.370;2024-01-27T15:11:45;25.50;99.90
12602;DHT22;30282;16.436;99.370;2024-01-27T15:14:14;25.50;99.90
12602;DHT22;30282;16.436;99.370;2024-01-27T15:16:43;25.50;99.90
12602;DHT22;30282;16.436;99.370;2024-01-27T15:19:17;25.50;99.90
12602;DHT22;30282;16.436;99.370;2024-01-27T15:21:51;25.50;99.90
12602;DHT22;30282;16.436;99.370;2024-01-27T15:24:20;25.40;99.90
12602;DHT22;30282;16.436;99.370;2024-01-27T15:26:49;25.30;99.90
12602;DHT22;30282;16.436;99.370;2024-01-27T15:29:20;25.30;99.90
12602;DHT22;30282;16.436;99.370;2024-01-27T15:31:49;25.30;99.90